sensor_id;sensor_type;location;lat;lon;timestamp;temperature;humidity
20504;DHT22;10410;51.046;6.980;2023-05-07T00:06:29;14.90;99.90
20504;DHT22;10410;51.046;6.980;2023-05-07T00:13:30;14.80;99.90
20504;DHT22;10410;51.046;6.980;2023-05-07T00:20:35;14.80;99.90
20504;DHT22;10410;51.046;6.980;2023-05-07T00:27:35;14.80;99.90
20504;DHT22;10410;51.046;6.980;2023-05-07T00:34:35;14.80;99.90
20504;DHT22;10410;51.046;6.980;2023-05-07T00:41:36;14.80;99.90
20504;DHT22;10410;51.046;6.980;2023-05-07T00:48:37;14.80;99.90
20504;DHT22;10410;51.046;6.980;2023-05-07T00:55:38;14.70;99.90
20504;DHT22;10410;51.046;6.980;2023-05-07T01:02:39;14.60;99.90
20504;DHT22;10410;51.046;6.980;2023-05-07T01:09:40;14.60;99.90
20504;DHT22;10410;51.046;6.980;2023-05-07T01:16:40;14.60;99.90
20504;DHT22;10410;51.046;6.980;2023-05-07T01:23:42;14.50;99.90
20504;DHT22;10410;51.046;6.980;2023-05-07T01:30:46;14.50;99.90
20504;DHT22;10410;51.046;6.980;2023-05-07T01:37:49;14.50;99.90
20504;DHT22;10410;51.046;6.980;2023-05-07T01:44:50;14.50;99.90
20504;DHT22;10410;51.046;6.980;2023-05-07T01:51:51;14.50;99.90
20504;DHT22;10410;51.046;6.980;2023-05-07T01:58:52;14.40;99.90
20504;DHT22;10410;51.046;6.980;2023-05-07T02:05:52;14.40;99.90
20504;DHT22;10410;51.046;6.980;2023-05-07T02:13:08;14.40;99.90
20504;DHT22;10410;51.046;6.980;2023-05-07T02:20:09;14.30;99.90
20504;DHT22;10410;51.046;6.980;2023-05-07T02:27:14;14.30;99.90
20504;DHT22;10410;51.046;6.980;2023-05-07T02:34:17;14.20;99.90
20504;DHT22;10410;51.046;6.980;2023-05-07T02:41:18;14.10;99.90
20504;DHT22;10410;51.046;6.980;2023-05-07T02:48:19;14.00;99.90
20504;DHT22;10410;51.046;6.980;2023-05-07T02:55:19;13.90;99.90
20504;DHT22;10410;51.046;6.980;2023-05-07T03:02:20;13.80;99.90
20504;DHT22;10410;51.046;6.980;2023-05-07T03:09:20;13.60;99.90
20504;DHT22;10410;51.046;6.980;2023-05-07T03:16:21;13.60;99.90
20504;DHT22;10410;51.046;6.980;2023-05-07T03:23:21;13.50;99.90
20504;DHT22;10410;51.046;6.980;2023-05-07T03:30:24;13.40;99.90
20504;DHT22;10410;51.046;6.980;2023-05-07T03:37:25;13.30;99.90
20504;DHT22;10410;51.046;6.980;2023-05-07T03:44:25;13.20;99.90
20504;DHT22;10410;51.046;6.980;2023-05-07T03:51:26;13.20;99.90
20504;DHT22;10410;51.046;6.980;2023-05-07T03:58:27;13.10;99.90
20504;DHT22;10410;51.046;6.980;2023-05-07T04:05:31;13.10;99.90
20504;DHT22;10410;51.046;6.980;2023-05-07T04:12:34;13.10;99.90
20504;DHT22;10410;51.046;6.980;2023-05-07T04:19:35;13.00;99.90
20504;DHT22;10410;51.046;6.980;2023-05-07T04:26:36;13.10;99.90
20504;DHT22;10410;51.046;6.980;2023-05-07T04:33:36;13.10;99.90
20504;DHT22;10410;51.046;6.980;2023-05-07T04:40:39;13.20;99.90
20504;DHT22;10410;51.046;6.980;2023-05-07T04:47:42;13.20;99.90
20504;DHT22;10410;51.046;6.980;2023-05-07T04:54:43;13.30;99.90
20504;DHT22;10410;51.046;6.980;2023-05-07T05:01:45;13.40;99.90
20504;DHT22;10410;51.046;6.980;2023-05-07T05:08:45;13.50;99.90
20504;DHT22;10410;51.046;6.980;2023-05-07T05:15:46;13.60;99.90
20504;DHT22;10410;51.046;6.980;2023-05-07T05:22:46;13.70;99.90
20504;DHT22;10410;51.046;6.980;2023-05-07T05:29:47;13.90;99.90
20504;DHT22;10410;51.046;6.980;2023-05-07T05:36:48;14.00;99.90
20504;DHT22;10410;51.046;6.980;2023-05-07T05:43:49;14.10;99.90
20504;DHT22;10410;51.046;6.980;2023-05-07T05:50:51;14.30;99.90
20504;DHT22;10410;51.046;6.980;2023-05-07T05:57:52;14.40;99.90
20504;DHT22;10410;51.046;6.980;2023-05-07T06:04:53;14.50;99.90
20504;DHT22;10410;51.046;6.980;2023-05-07T06:11:56;14.70;99.90
20504;DHT22;10410;51.046;6.980;2023-05-07T06:19:00;14.80;99.90
20504;DHT22;10410;51.046;6.980;2023-05-07T06:26:00;15.00;99.90
20504;DHT22;10410;51.046;6.980;2023-05-07T06:33:06;15.10;99.90
20504;DHT22;10410;51.046;6.980;2023-05-07T06:40:08;15.30;99.90
20504;DHT22;10410;51.046;6.980;2023-05-07T06:47:12;15.60;99.90
20504;DHT22;10410;51.046;6.980;2023-05-07T06:54:16;15.80;99.90
20504;DHT22;10410;51.046;6.980;2023-05-07T07:01:17;16.10;99.90
20504;DHT22;10410;51.046;6.980;2023-05-07T07:08:18;16.40;99.90
20504;DHT22;10410;51.046;6.980;2023-05-07T07:15:20;16.60;99.90
20504;DHT22;10410;51.046;6.980;2023-05-07T07:22:26;16.80;99.90
20504;DHT22;10410;51.046;6.980;2023-05-07T07:29:26;17.20;99.90
20504;DHT22;10410;51.046;6.980;2023-05-07T07:36:28;17.50;99.90
20504;DHT22;10410;51.046;6.980;2023-05-07T07:43:44;17.80;99.90
20504;DHT22;10410;51.046;6.980;2023-05-07T07:50:50;18.10;99.90
20504;DHT22;10410;51.046;6.980;2023-05-07T07:57:54;18.40;99.90
20504;DHT22;10410;51.046;6.980;2023-05-07T08:04:55;18.70;99.90
20504;DHT22;10410;51.046;6.980;2023-05-07T08:11:56;18.90;99.90
20504;DHT22;10410;51.046;6.980;2023-05-07T08:18:56;19.10;99.90
20504;DHT22;10410;51.046;6.980;2023-05-07T08:25:56;19.20;99.90
20504;DHT22;10410;51.046;6.980;2023-05-07T08:32:58;19.30;99.90
20504;DHT22;10410;51.046;6.980;2023-05-07T08:39:58;19.40;99.90
20504;DHT22;10410;51.046;6.980;2023-05-07T08:47:06;19.50;99.90
20504;DHT22;10410;51.046;6.980;2023-05-07T08:54:09;19.60;99.90
20504;DHT22;10410;51.046;6.980;2023-05-07T09:01:15;19.90;99.90
20504;DHT22;10410;51.046;6.980;2023-05-07T09:08:19;20.00;99.90
20504;DHT22;10410;51.046;6.980;2023-05-07T09:15:24;20.30;99.90
20504;DHT22;10410;51.046;6.980;2023-05-07T09:22:26;20.40;99.90
20504;DHT22;10410;51.046;6.980;2023-05-07T09:29:32;20.70;99.90
20504;DHT22;10410;51.046;6.980;2023-05-07T09:36:37;20.90;99.90
20504;DHT22;10410;51.046;6.980;2023-05-07T09:43:39;21.10;99.90
20504;DHT22;10410;51.046;6.980;2023-05-07T09:50:48;21.20;99.90
20504;DHT22;10410;51.046;6.980;2023-05-07T09:57:53;21.50;99.90
20504;DHT22;10410;51.046;6.980;2023-05-07T10:04:56;21.70;99.90
20504;DHT22;10410;51.046;6.980;2023-05-07T10:12:01;21.70;99.90
20504;DHT22;10410;51.046;6.980;2023-05-07T10:19:03;21.80;99.90
20504;DHT22;10410;51.046;6.980;2023-05-07T10:26:06;22.00;99.90
20504;DHT22;10410;51.046;6.980;2023-05-07T10:33:10;22.30;99.90
20504;DHT22;10410;51.046;6.980;2023-05-07T10:40:15;22.50;99.90
20504;DHT22;10410;51.046;6.980;2023-05-07T10:47:18;22.70;99.90
20504;DHT22;10410;51.046;6.980;2023-05-07T10:54:22;23.00;99.90
20504;DHT22;10410;51.046;6.980;2023-05-07T11:01:56;23.00;99.90
20504;DHT22;10410;51.046;6.980;2023-05-07T11:09:10;23.20;99.90
20504;DHT22;10410;51.046;6.980;2023-05-07T11:16:26;23.60;99.90
20504;DHT22;10410;51.046;6.980;2023-05-07T11:30:57;23.70;99.90
20504;DHT22;10410;51.046;6.980;2023-05-07T11:37:59;23.60;99.90
20504;DHT22;10410;51.046;6.980;2023-05-07T11:45:06;23.70;99.90
20504;DHT22;10410;51.046;6.980;2023-05-07T11:52:06;23.70;99.90
20504;DHT22;10410;51.046;6.980;2023-05-07T11:59:07;23.90;99.90
20504;DHT22;10410;51.046;6.980;2023-05-07T12:06:07;24.00;99.90
20504;DHT22;10410;51.046;6.980;2023-05-07T12:13:18;24.10;99.90
20504;DHT22;10410;51.046;6.980;2023-05-07T12:20:19;24.60;99.90
20504;DHT22;10410;51.046;6.980;2023-05-07T12:27:19;25.20;99.90
20504;DHT22;10410;51.046;6.980;2023-05-07T12:34:20;25.20;99.90
20504;DHT22;10410;51.046;6.980;2023-05-07T12:41:20;25.10;99.90
20504;DHT22;10410;51.046;6.980;2023-05-07T12:48:26;24.80;99.90
20504;DHT22;10410;51.046;6.980;2023-05-07T12:55:30;24.60;99.90
20504;DHT22;10410;51.046;6.980;2023-05-07T13:02:37;24.50;99.90
20504;DHT22;10410;51.046;6.980;2023-05-07T13:09:38;24.30;99.90
20504;DHT22;10410;51.046;6.980;2023-05-07T13:16:38;24.10;99.90
20504;DHT22;10410;51.046;6.980;2023-05-07T13:23:38;23.80;99.90
20504;DHT22;10410;51.046;6.980;2023-05-07T13:30:39;23.70;99.90
20504;DHT22;10410;51.046;6.980;2023-05-07T13:37:40;23.60;99.90
20504;DHT22;10410;51.046;6.980;2023-05-07T13:44:41;23.50;99.90
20504;DHT22;10410;51.046;6.980;2023-05-07T13:51:41;23.30;99.90
20504;DHT22;10410;51.046;6.980;2023-05-07T13:58:42;23.20;99.90
20504;DHT22;10410;51.046;6.980;2023-05-07T14:05:58;22.90;99.90
20504;DHT22;10410;51.046;6.980;2023-05-07T14:13:00;22.70;99.90
20504;DHT22;10410;51.046;6.980;2023-05-07T14:20:01;22.50;99.90
20504;DHT22;10410;51.046;6.980;2023-05-07T14:27:01;22.50;99.90
20504;DHT22;10410;51.046;6.980;2023-05-07T14:34:02;22.40;99.90
20504;DHT22;10410;51.046;6.980;2023-05-07T14:41:02;22.30;99.90
20504;DHT22;10410;51.046;6.980;2023-05-07T14:48:03;22.00;99.90
20504;DHT22;10410;51.046;6.980;2023-05-07T14:55:04;20.90;99.90
20504;DHT22;10410;51.046;6.980;2023-05-07T15:02:06;20.60;99.90
20504;DHT22;10410;51.046;6.980;2023-05-07T15:09:09;20.60;99.90
20504;DHT22;10410;51.046;6.980;2023-05-07T15:16:10;20.60;99.90
20504;DHT22;10410;51.046;6.980;2023-05-07T15:23:10;20.50;99.90
20504;DHT22;10410;51.046;6.980;2023-05-07T15:30:13;20.40;99.90
20504;DHT22;10410;51.046;6.980;2023-05-07T15:37:14;20.40;99.90
20504;DHT22;10410;51.046;6.980;2023-05-07T15:44:14;20.40;99.90
20504;DHT22;10410;51.046;6.980;2023-05-07T15:51:15;20.40;99.90
20504;DHT22;10410;51.046;6.980;2023-05-07T15:58:16;20.40;99.90
20504;DHT22;10410;51.046;6.980;2023-05-07T16:05:19;20.50;99.90
20504;DHT22;10410;51.046;6.980;2023-05-07T16:12:19;20.70;99.90
20504;DHT22;10410;51.046;6.980;2023-05-07T16:19:20;20.80;99.90
20504;DHT22;10410;51.046;6.980;2023-05-07T16:26:20;20.90;99.90
20504;DHT22;10410;51.046;6.980;2023-05-07T16:33:21;21.00;99.90
20504;DHT22;10410;51.046;6.980;2023-05-07T16:40:21;21.00;99.90
20504;DHT22;10410;51.046;6.980;2023-05-07T16:47:22;21.10;99.90
20504;DHT22;10410;51.046;6.980;2023-05-07T16:54:22;21.10;99.90
20504;DHT22;10410;51.046;6.980;2023-05-07T17:01:23;21.20;99.90
20504;DHT22;10410;51.046;6.980;2023-05-07T17:08:24;21.20;99.90
20504;DHT22;10410;51.046;6.980;2023-05-07T17:15:25;21.10;99.90
20504;DHT22;10410;51.046;6.980;2023-05-07T17:22:25;21.10;99.90
20504;DHT22;10410;51.046;6.980;2023-05-07T17:29:26;20.90;99.90
20504;DHT22;10410;51.046;6.980;2023-05-07T17:36:26;20.90;99.90
20504;DHT22;10410;51.046;6.980;2023-05-07T17:43:27;20.60;99.90
20504;DHT22;10410;51.046;6.980;2023-05-07T17:50:27;20.40;99.90
20504;DHT22;10410;51.046;6.980;2023-05-07T17:57:27;20.30;99.90
20504;DHT22;10410;51.046;6.980;2023-05-07T18:04:30;20.00;99.90
20504;DHT22;10410;51.046;6.980;2023-05-07T18:11:30;19.90;99.90
20504;DHT22;10410;51.046;6.980;2023-05-07T18:18:32;19.90;99.90
20504;DHT22;10410;51.046;6.980;2023-05-07T18:25:34;19.80;99.90
20504;DHT22;10410;51.046;6.980;2023-05-07T18:32:35;19.80;99.90
20504;DHT22;10410;51.046;6.980;2023-05-07T18:39:36;19.70;99.90
20504;DHT22;10410;51.046;6.980;2023-05-07T18:46:36;19.70;99.90
20504;DHT22;10410;51.046;6.980;2023-05-07T18:53:38;19.60;99.90
20504;DHT22;10410;51.046;6.980;2023-05-07T19:00:38;19.50;99.90
20504;DHT22;10410;51.046;6.980;2023-05-07T19:07:38;19.40;99.90
20504;DHT22;10410;51.046;6.980;2023-05-07T19:14:39;19.30;99.90
20504;DHT22;10410;51.046;6.980;2023-05-07T19:21:41;19.20;99.90
20504;DHT22;10410;51.046;6.980;2023-05-07T19:28:41;19.10;99.90
20504;DHT22;10410;51.046;6.980;2023-05-07T19:35:47;18.90;99.90
20504;DHT22;10410;51.046;6.980;2023-05-07T19:42:47;18.80;99.90
20504;DHT22;10410;51.046;6.980;2023-05-07T19:49:47;18.80;99.90
20504;DHT22;10410;51.046;6.980;2023-05-07T19:56:48;18.60;99.90
20504;DHT22;10410;51.046;6.980;2023-05-07T20:03:48;18.50;99.90
20504;DHT22;10410;51.046;6.980;2023-05-07T20:10:49;18.30;99.90
20504;DHT22;10410;51.046;6.980;2023-05-07T20:17:50;18.20;99.90
20504;DHT22;10410;51.046;6.980;2023-05-07T20:24:51;18.10;99.90
20504;DHT22;10410;51.046;6.980;2023-05-07T20:31:51;17.90;99.90
20504;DHT22;10410;51.046;6.980;2023-05-07T20:38:52;17.80;99.90
20504;DHT22;10410;51.046;6.980;2023-05-07T20:45:59;17.70;99.90
20504;DHT22;10410;51.046;6.980;2023-05-07T20:53:03;17.60;99.90
20504;DHT22;10410;51.046;6.980;2023-05-07T21:00:03;17.40;99.90
20504;DHT22;10410;51.046;6.980;2023-05-07T21:07:04;17.30;99.90
20504;DHT22;10410;51.046;6.980;2023-05-07T21:14:05;17.20;99.90
20504;DHT22;10410;51.046;6.980;2023-05-07T21:21:09;17.20;99.90
20504;DHT22;10410;51.046;6.980;2023-05-07T21:28:10;17.10;99.90
20504;DHT22;10410;51.046;6.980;2023-05-07T21:35:10;17.10;99.90
20504;DHT22;10410;51.046;6.980;2023-05-07T21:42:11;17.00;99.90
20504;DHT22;10410;51.046;6.980;2023-05-07T21:49:11;17.00;99.90
20504;DHT22;10410;51.046;6.980;2023-05-07T21:56:12;16.90;99.90
20504;DHT22;10410;51.046;6.980;2023-05-07T22:03:12;16.80;99.90
20504;DHT22;10410;51.046;6.980;2023-05-07T22:10:13;16.80;99.90
20504;DHT22;10410;51.046;6.980;2023-05-07T22:17:14;16.70;99.90
20504;DHT22;10410;51.046;6.980;2023-05-07T22:24:14;16.60;99.90
20504;DHT22;10410;51.046;6.980;2023-05-07T22:31:14;16.50;99.90
20504;DHT22;10410;51.046;6.980;2023-05-07T22:38:15;16.40;99.90
20504;DHT22;10410;51.046;6.980;2023-05-07T22:45:15;16.40;99.90
20504;DHT22;10410;51.046;6.980;2023-05-07T22:52:16;16.40;99.90
20504;DHT22;10410;51.046;6.980;2023-05-07T22:59:17;16.40;99.90
20504;DHT22;10410;51.046;6.980;2023-05-07T23:06:17;16.40;99.90
20504;DHT22;10410;51.046;6.980;2023-05-07T23:13:18;16.30;99.90
20504;DHT22;10410;51.046;6.980;2023-05-07T23:20:18;16.30;99.90
20504;DHT22;10410;51.046;6.980;2023-05-07T23:27:19;16.30;99.90
20504;DHT22;10410;51.046;6.980;2023-05-07T23:34:19;16.30;99.90
20504;DHT22;10410;51.046;6.980;2023-05-07T23:41:23;16.20;99.90
20504;DHT22;10410;51.046;6.980;2023-05-07T23:48:23;16.20;99.90
20504;DHT22;10410;51.046;6.980;2023-05-07T23:55:24;16.20;99.90
